Time;durP1;ratioP1;P1;durP2;ratioP2;P2;SDS_P1;SDS_P2;PMS_P1;PMS_P2;Temp;Humidity;BMP_temperature;BMP_pressure;BME280_temperature;BME280_humidity;BME280_pressure;Samples;Min_cycle;Max_cycle;Signal;HPM_P1;HPM_P2
2023/01/17 04:46:01;;;;;;;19.60;9.77;;;;;;;4.03;100.00;97974.34;5857404;27;20146;-79
2023/01/17 04:49:04;;;;;;;17.17;9.93;;;;;;;4.06;100.00;97968.63;5343143;33;33947;-80
2023/01/17 04:52:06;;;;;;;19.75;9.48;;;;;;;4.12;100.00;97974.19;5346816;33;33913;-80
2023/01/17 04:55:09;;;;;;;19.40;10.10;;;;;;;4.19;100.00;97970.56;5344334;33;34314;-81
2023/01/17 04:58:12;;;;;;;18.37;9.43;;;;;;;4.16;100.00;97972.81;5343345;33;33763;-81
2023/01/17 05:01:15;;;;;;;18.33;9.70;;;;;;;4.18;100.00;97974.22;5330053;33;33750;-81
2023/01/17 05:04:17;;;;;;;17.70;9.45;;;;;;;4.18;100.00;97966.25;5337741;33;33979;-81
2023/01/17 05:07:20;;;;;;;19.35;9.73;;;;;;;4.23;100.00;97971.00;5333906;33;33937;-80
2023/01/17 05:10:24;;;;;;;16.17;8.45;;;;;;;4.19;100.00;97975.91;5328448;33;33663;-80
2023/01/17 05:13:27;;;;;;;14.27;8.40;;;;;;;4.18;100.00;97968.09;5325624;33;33943;-81
2023/01/17 05:16:29;;;;;;;17.40;7.85;;;;;;;4.32;100.00;97975.94;5337614;33;34085;-80
2023/01/17 05:19:32;;;;;;;15.23;7.65;;;;;;;4.30;100.00;97972.69;5334007;33;34416;-80
2023/01/17 05:22:35;;;;;;;11.48;6.20;;;;;;;4.32;100.00;97973.28;5331448;33;33871;-80
2023/01/17 05:25:43;;;;;;;18.02;6.80;;;;;;;4.35;100.00;97971.25;5327506;33;34149;-80
2023/01/17 05:28:45;;;;;;;14.43;6.53;;;;;;;4.43;100.00;97969.25;5328923;33;34106;-80
2023/01/17 05:31:48;;;;;;;11.65;5.80;;;;;;;4.43;100.00;97971.09;5312656;33;32371;-80
2023/01/17 05:34:51;;;;;;;13.02;6.37;;;;;;;4.49;100.00;97975.63;5311821;33;32839;-83
2023/01/17 05:37:55;;;;;;;10.13;6.15;;;;;;;4.42;100.00;97978.28;5325356;33;33644;-84
2023/01/17 05:40:59;;;;;;;10.65;5.75;;;;;;;4.47;100.00;97975.81;5329831;33;35342;-84
2023/01/17 05:44:02;;;;;;;10.57;6.40;;;;;;;4.46;100.00;97973.37;5332694;33;34863;-84
2023/01/17 05:47:04;;;;;;;12.52;7.32;;;;;;;4.43;100.00;97976.44;5323023;33;34436;-81
2023/01/17 05:50:09;;;;;;;10.15;6.07;;;;;;;4.42;100.00;97993.44;5301512;33;32141;-80
2023/01/17 05:53:13;;;;;;;13.13;7.12;;;;;;;4.43;100.00;97993.22;5307141;33;33922;-81
2023/01/17 05:56:16;;;;;;;10.40;6.20;;;;;;;4.40;100.00;98003.47;5298587;33;34683;-80
2023/01/17 05:59:19;;;;;;;12.05;6.68;;;;;;;4.41;100.00;98013.91;5316679;33;33510;-80
2023/01/17 06:02:37;;;;;;;12.75;5.70;;;;;;;4.48;100.00;98022.78;5311522;33;33966;-79
2023/01/17 06:05:41;;;;;;;12.15;6.50;;;;;;;4.54;100.00;98021.16;5307865;33;34155;-80
2023/01/17 06:08:43;;;;;;;10.43;5.82;;;;;;;4.56;100.00;98019.09;5308331;33;33997;-79
2023/01/17 06:11:46;;;;;;;9.32;5.45;;;;;;;4.53;100.00;98031.00;5293954;33;32289;-80
2023/01/17 06:14:49;;;;;;;11.07;5.53;;;;;;;4.59;100.00;98037.38;5306810;33;34473;-80
2023/01/17 06:17:51;;;;;;;8.55;5.40;;;;;;;4.54;100.00;98032.66;5306136;33;34490;-80
2023/01/17 06:20:54;;;;;;;8.27;4.87;;;;;;;4.55;100.00;98036.13;5307526;33;34311;-80
2023/01/17 06:23:57;;;;;;;7.50;4.87;;;;;;;4.54;100.00;98047.81;5308458;33;34902;-80
2023/01/17 06:27:00;;;;;;;6.45;4.00;;;;;;;4.46;100.00;98038.12;5309902;33;34277;-79
2023/01/17 06:30:04;;;;;;;6.28;4.05;;;;;;;4.40;100.00;98036.25;5312288;33;33954;-79
2023/01/17 06:33:06;;;;;;;6.22;3.85;;;;;;;4.36;100.00;98034.16;5309487;33;34331;-79
2023/01/17 06:36:09;;;;;;;6.55;3.70;;;;;;;4.35;100.00;98044.00;5308051;33;34717;-79
2023/01/17 06:39:12;;;;;;;5.97;3.42;;;;;;;4.29;100.00;98039.44;5308836;33;34308;-80
2023/01/17 06:42:17;;;;;;;6.47;3.70;;;;;;;4.34;100.00;98049.53;5307841;33;33630;-80
2023/01/17 06:45:20;;;;;;;5.03;4.05;;;;;;;4.26;100.00;98051.31;5307110;33;32365;-80
2023/01/17 06:48:23;;;;;;;6.07;3.37;;;;;;;4.30;100.00;98065.91;5323649;33;34038;-80
2023/01/17 06:51:26;;;;;;;5.70;3.97;;;;;;;4.27;100.00;98084.09;5323639;33;34670;-80
2023/01/17 06:54:29;;;;;;;4.75;3.50;;;;;;;4.25;100.00;98086.97;5313640;33;33944;-79
2023/01/17 06:57:32;;;;;;;6.60;4.25;;;;;;;4.26;100.00;98106.44;5308287;33;33994;-80
2023/01/17 07:00:35;;;;;;;6.70;4.62;;;;;;;4.27;100.00;98100.91;5306741;33;266882;-80
2023/01/17 07:03:41;;;;;;;5.37;4.22;;;;;;;4.32;100.00;98114.47;5308479;33;33991;-80
2023/01/17 07:06:44;;;;;;;6.87;4.15;;;;;;;4.27;100.00;98122.22;5316105;33;34413;-80
2023/01/17 07:09:47;;;;;;;5.87;3.78;;;;;;;4.28;100.00;98115.06;5327053;33;33933;-80
2023/01/17 07:12:50;;;;;;;5.12;3.80;;;;;;;4.30;100.00;98127.16;5310493;33;32334;-80
2023/01/17 07:15:53;;;;;;;6.12;4.10;;;;;;;4.21;100.00;98130.16;5323307;33;34920;-79
2023/01/17 07:18:56;;;;;;;6.05;4.50;;;;;;;4.22;100.00;98140.63;5325839;33;34245;-80
2023/01/17 07:21:59;;;;;;;7.80;4.70;;;;;;;4.27;100.00;98135.53;5324018;33;34024;-80
2023/01/17 07:25:03;;;;;;;6.95;4.37;;;;;;;4.23;100.00;98144.91;5306356;33;32530;-79
2023/01/17 07:28:06;;;;;;;6.78;4.12;;;;;;;4.23;100.00;98150.25;5314363;33;33864;-79
2023/01/17 07:31:09;;;;;;;6.65;4.12;;;;;;;4.24;100.00;98149.25;5322830;33;33750;-80
2023/01/17 07:34:12;;;;;;;6.97;4.40;;;;;;;4.21;100.00;98149.63;5314751;33;34155;-79
2023/01/17 07:37:15;;;;;;;6.78;4.20;;;;;;;4.16;100.00;98157.37;5298130;33;32567;-80
2023/01/17 07:40:19;;;;;;;5.28;3.55;;;;;;;4.08;100.00;98160.97;5321555;33;34407;-80
2023/01/17 07:43:22;;;;;;;4.50;3.03;;;;;;;4.06;100.00;98170.16;5310016;33;33738;-80
2023/01/17 07:46:24;;;;;;;3.45;2.60;;;;;;;3.95;100.00;98176.84;5318719;33;34310;-84
2023/01/17 07:49:28;;;;;;;4.12;2.75;;;;;;;4.00;100.00;98189.56;5315232;33;33621;-84
2023/01/17 07:52:30;;;;;;;4.37;2.95;;;;;;;3.95;100.00;98194.63;5314863;33;33975;-84
2023/01/17 07:55:34;;;;;;;3.05;2.55;;;;;;;3.92;100.00;98203.00;5315072;33;34708;-85
2023/01/17 07:58:36;;;;;;;2.78;2.37;;;;;;;4.00;100.00;98214.34;5317254;33;33854;-81
2023/01/17 08:01:39;;;;;;;2.00;1.90;;;;;;;3.99;100.00;98222.53;5319077;33;33479;-79
2023/01/17 08:04:43;;;;;;;2.35;2.12;;;;;;;3.94;100.00;98225.75;5322946;33;33638;-80
2023/01/17 08:07:46;;;;;;;2.17;1.98;;;;;;;3.94;100.00;98227.59;5317509;33;33877;-80
2023/01/17 08:10:50;;;;;;;2.67;2.05;;;;;;;3.99;100.00;98231.34;5320073;33;33491;-80
2023/01/17 08:13:56;;;;;;;2.22;2.03;;;;;;;3.89;100.00;98240.63;5304128;33;32135;-80
2023/01/17 08:17:04;;;;;;;1.75;1.65;;;;;;;3.94;100.00;98232.91;5313469;33;34806;-79
2023/01/17 08:20:08;;;;;;;2.17;1.77;;;;;;;3.87;100.00;98243.50;5310617;33;33618;-80
2023/01/17 08:23:11;;;;;;;1.45;1.35;;;;;;;3.89;100.00;98251.28;5299991;33;32405;-80
2023/01/17 08:26:20;;;;;;;1.77;1.40;;;;;;;3.80;100.00;98261.22;5313561;33;34752;-80
2023/01/17 08:29:23;;;;;;;1.67;1.23;;;;;;;3.95;100.00;98263.84;5313718;33;33676;-80
2023/01/17 08:32:26;;;;;;;1.75;1.65;;;;;;;4.29;100.00;98261.34;5313673;33;33851;-80
2023/01/17 08:35:29;;;;;;;1.02;1.02;;;;;;;4.55;100.00;98265.28;5315567;33;33583;-80
2023/01/17 08:38:32;;;;;;;1.20;1.12;;;;;;;4.96;100.00;98262.75;5317263;33;34599;-80
2023/01/17 08:41:35;;;;;;;1.30;1.20;;;;;;;5.41;100.00;98273.94;5316095;33;33777;-80
2023/01/17 08:44:38;;;;;;;1.08;1.00;;;;;;;5.85;100.00;98293.22;5312371;33;33640;-80
2023/01/17 08:47:41;;;;;;;1.17;1.10;;;;;;;6.09;100.00;98290.09;5304312;33;32057;-80
2023/01/17 08:50:44;;;;;;;2.55;1.10;;;;;;;6.38;100.00;98282.78;5305802;33;32269;-80
2023/01/17 08:53:47;;;;;;;2.00;1.30;;;;;;;6.42;100.00;98275.16;5321097;33;35350;-80
2023/01/17 08:56:51;;;;;;;1.30;1.20;;;;;;;5.99;100.00;98267.44;5324729;33;34049;-80
2023/01/17 08:59:54;;;;;;;1.67;1.20;;;;;;;5.78;100.00;98266.50;5316732;33;34638;-80
2023/01/17 09:02:58;;;;;;;2.20;1.40;;;;;;;5.71;100.00;98272.84;5322823;33;34228;-78
2023/01/17 09:06:04;;;;;;;1.48;1.37;;;;;;;5.59;100.00;98281.41;5329179;33;34066;-79
2023/01/17 09:09:09;;;;;;;1.42;1.33;;;;;;;5.61;100.00;98289.22;5320371;33;34154;-79
2023/01/17 09:12:12;;;;;;;1.25;1.20;;;;;;;5.68;100.00;98276.75;5325041;33;34040;-79
2023/01/17 09:15:19;;;;;;;4.35;1.67;;;;;;;5.80;100.00;98282.34;5311906;33;35326;-80
2023/01/17 09:18:23;;;;;;;1.20;1.15;;;;;;;5.68;100.00;98292.75;5312235;33;34216;-80
2023/01/17 09:21:26;;;;;;;1.50;1.40;;;;;;;5.75;100.00;98300.78;5305094;33;32277;-80
2023/01/17 09:24:31;;;;;;;1.10;1.10;;;;;;;5.86;100.00;98306.41;5309627;33;34927;-80
2023/01/17 09:27:36;;;;;;;2.50;2.30;;;;;;;5.88;100.00;98300.87;5311678;33;32578;-80
2023/01/17 09:30:40;;;;;;;2.30;1.58;;;;;;;5.79;100.00;98300.22;5311662;33;34434;-80
2023/01/17 09:33:43;;;;;;;1.50;1.40;;;;;;;5.87;100.00;98307.22;5315851;33;34207;-80
2023/01/17 09:36:46;;;;;;;1.40;1.30;;;;;;;5.94;100.00;98302.78;5319694;33;34831;-80
2023/01/17 09:39:49;;;;;;;1.98;1.23;;;;;;;6.12;100.00;98320.91;5321258;33;33810;-80
2023/01/17 09:43:02;;;;;;;1.62;1.52;;;;;;;6.15;100.00;98323.19;5318118;33;33730;-80
2023/01/17 09:46:09;;;;;;;1.65;1.50;;;;;;;6.27;100.00;98331.44;5318129;33;34521;-83
2023/01/17 09:49:38;;;;;;;0.90;0.90;;;;;;;6.18;100.00;98321.97;5326958;33;35416;-81
2023/01/17 09:52:41;;;;;;;1.00;1.00;;;;;;;6.19;100.00;98328.94;5322011;33;33999;-81
2023/01/17 09:56:13;;;;;;;1.10;1.10;;;;;;;6.37;100.00;98332.69;5310131;33;34485;-81
2023/01/17 09:59:15;;;;;;;1.60;1.50;;;;;;;6.52;100.00;98347.75;5322487;33;34248;-81
2023/01/17 10:02:53;;;;;;;1.65;1.55;;;;;;;6.54;100.00;98349.19;5319857;33;33510;-81
2023/01/17 10:06:10;;;;;;;1.40;1.30;;;;;;;6.67;100.00;98347.59;5319601;33;34319;-80
2023/01/17 10:09:22;;;;;;;1.60;1.50;;;;;;;6.77;100.00;98353.38;5302872;33;33227;-81
2023/01/17 10:12:27;;;;;;;1.60;1.48;;;;;;;6.81;100.00;98359.94;5316145;33;33789;-81
2023/01/17 10:15:47;;;;;;;1.75;1.65;;;;;;;6.88;100.00;98358.12;5318064;33;34312;-81
2023/01/17 10:19:03;;;;;;;1.83;1.73;;;;;;;6.98;100.00;98355.03;5293738;33;32746;-85
2023/01/17 10:22:33;;;;;;;1.70;1.60;;;;;;;6.99;100.00;98351.31;5311504;33;34015;-80
2023/01/17 10:25:42;;;;;;;1.98;1.60;;;;;;;7.04;100.00;98354.22;5315620;33;33926;-79
2023/01/17 10:28:50;;;;;;;1.60;1.50;;;;;;;6.90;100.00;98363.25;5318422;33;34093;-80
2023/01/17 10:32:01;;;;;;;1.62;1.52;;;;;;;6.95;100.00;98361.63;5323713;33;33751;-80
2023/01/17 10:35:16;;;;;;;2.12;1.80;;;;;;;7.03;100.00;98355.25;5313104;33;32592;-79
2023/01/17 10:38:24;;;;;;;1.58;1.42;;;;;;;7.04;100.00;98344.34;5307610;33;32198;-80
2023/01/17 10:41:36;;;;;;;1.70;1.60;;;;;;;7.12;100.00;98346.00;5309586;33;34372;-80
2023/01/17 10:44:52;;;;;;;1.85;1.75;;;;;;;7.13;100.00;98342.28;5320403;33;33971;-81
2023/01/17 10:48:19;;;;;;;2.10;1.90;;;;;;;7.12;100.00;98339.84;5314758;33;34214;-80
2023/01/17 10:51:43;;;;;;;1.45;1.35;;;;;;;7.21;100.00;98335.91;5300004;33;32272;-79
2023/01/17 10:55:04;;;;;;;1.60;1.50;;;;;;;7.11;100.00;98330.13;5309792;33;34249;-83
2023/01/17 10:58:11;;;;;;;2.50;1.98;;;;;;;7.15;100.00;98326.03;5312754;33;34342;-80
2023/01/17 11:01:19;;;;;;;2.15;1.60;;;;;;;7.17;100.00;98324.00;5313761;33;33952;-80
2023/01/17 11:04:33;;;;;;;2.87;1.92;;;;;;;7.23;100.00;98317.81;5301690;33;32257;-80
2023/01/17 11:07:36;;;;;;;1.73;1.55;;;;;;;7.38;100.00;98306.88;5315657;33;33835;-80
2023/01/17 11:10:52;;;;;;;2.97;1.92;;;;;;;7.48;100.00;98300.03;5315928;33;34426;-80
2023/01/17 11:13:59;;;;;;;3.20;2.12;;;;;;;7.67;100.00;98300.22;5309691;33;33644;-80
2023/01/17 11:17:05;;;;;;;3.50;1.90;;;;;;;7.60;100.00;98288.69;5317644;33;34757;-79
2023/01/17 11:20:26;;;;;;;2.28;2.08;;;;;;;7.54;100.00;98278.81;5305243;33;32631;-79
2023/01/17 11:23:32;;;;;;;2.53;1.80;;;;;;;7.64;100.00;98285.41;5303519;33;33355;-81
2023/01/17 11:26:36;;;;;;;3.45;1.60;;;;;;;7.83;100.00;98288.22;5319431;33;34438;-81
2023/01/17 11:29:39;;;;;;;1.75;1.60;;;;;;;7.99;100.00;98282.41;5312726;33;33586;-79
2023/01/17 11:32:55;;;;;;;1.75;1.50;;;;;;;8.14;99.66;98269.53;5298764;33;32643;-80
2023/01/17 11:35:58;;;;;;;1.40;1.30;;;;;;;8.20;92.24;98272.41;5308107;33;33506;-80
2023/01/17 11:39:04;;;;;;;1.65;1.55;;;;;;;8.42;93.16;98267.56;5313405;33;34515;-79
2023/01/17 11:42:34;;;;;;;1.30;1.20;;;;;;;8.68;93.22;98253.97;5311282;33;35084;-80
2023/01/17 11:45:37;;;;;;;;;;;;;;;9.00;87.45;98245.88;5315655;33;33947;-83
2023/01/17 11:48:40;;;;;;;1.05;1.05;;;;;;;9.20;85.01;98245.69;5325190;33;34011;-81
2023/01/17 11:51:43;;;;;;;1.95;1.55;;;;;;;9.59;81.08;98239.06;5314408;33;34372;-80
2023/01/17 11:54:48;;;;;;;1.83;1.40;;;;;;;9.80;80.09;98245.88;5312672;33;34871;-80
2023/01/17 11:57:50;;;;;;;2.03;1.10;;;;;;;10.14;77.44;98246.25;5313583;33;32291;-80
2023/01/17 12:01:22;;;;;;;1.00;1.00;;;;;;;10.68;74.99;98249.88;5317977;33;34101;-80
2023/01/17 12:04:47;;;;;;;0.80;0.80;;;;;;;10.91;65.07;98259.84;5309780;33;34002;-80
2023/01/17 12:07:53;;;;;;;1.37;0.80;;;;;;;11.23;62.38;98281.91;5307652;33;35145;-81
2023/01/17 12:11:15;;;;;;;1.27;1.17;;;;;;;11.85;59.02;98285.97;5308901;33;33680;-81
2023/01/17 12:14:34;;;;;;;1.25;1.20;;;;;;;11.66;62.03;98283.38;5322574;33;34029;-78
2023/01/17 12:17:40;;;;;;;2.70;1.45;;;;;;;12.24;63.10;98276.25;5299009;33;32696;-79
2023/01/17 12:21:08;;;;;;;1.55;1.30;;;;;;;11.45;63.33;98286.69;5313240;33;34855;-79
2023/01/17 12:24:46;;;;;;;1.70;1.42;;;;;;;11.89;66.49;98290.66;5311671;33;33666;-79
2023/01/17 12:28:04;;;;;;;2.78;1.90;;;;;;;12.61;64.96;98281.28;5300717;33;32393;-80
2023/01/17 12:31:35;;;;;;;3.05;1.77;;;;;;;12.38;66.33;98276.78;5295219;33;32517;-80
2023/01/17 12:34:51;;;;;;;1.85;1.50;;;;;;;12.93;63.20;98276.97;5311845;33;34586;-80
2023/01/17 12:38:02;;;;;;;1.42;1.30;;;;;;;12.01;68.47;98283.34;5305373;33;33606;-80
2023/01/17 12:41:12;;;;;;;1.50;1.40;;;;;;;11.97;65.17;98278.69;5308379;33;35083;-79
2023/01/17 12:44:18;;;;;;;1.85;1.50;;;;;;;12.08;66.66;98285.94;5297844;33;32380;-79
2023/01/17 12:47:21;;;;;;;2.42;1.70;;;;;;;11.45;67.65;98281.31;5313651;33;34951;-79
2023/01/17 12:50:54;;;;;;;1.80;1.52;;;;;;;11.13;69.19;98279.75;5317878;33;33874;-80
2023/01/17 12:54:18;;;;;;;2.75;1.70;;;;;;;10.62;69.29;98286.59;5311864;33;32943;-80
2023/01/17 12:57:25;;;;;;;1.50;1.20;;;;;;;10.38;70.52;98284.84;5328641;33;34576;-84
2023/01/17 13:00:30;;;;;;;1.55;1.45;;;;;;;10.34;70.47;98284.50;5317125;33;33744;-81
2023/01/17 13:03:59;;;;;;;1.50;1.40;;;;;;;10.04;70.66;98275.56;5327233;33;34411;-81
2023/01/17 13:07:20;;;;;;;1.60;1.50;;;;;;;9.41;73.34;98277.47;5313688;33;35367;-81
2023/01/17 13:10:36;;;;;;;2.50;1.80;;;;;;;9.04;76.68;98280.09;5297930;33;32396;-80
2023/01/17 13:13:40;;;;;;;1.92;1.83;;;;;;;8.78;76.21;98264.22;5311265;33;33675;-80
2023/01/17 13:17:21;;;;;;;6.97;1.90;;;;;;;8.59;78.68;98274.03;5294162;33;32179;-80
2023/01/17 13:21:04;;;;;;;2.25;1.80;;;;;;;8.31;81.83;98263.69;5291868;33;34486;-79
2023/01/17 13:24:30;;;;;;;2.42;1.60;;;;;;;8.10;83.31;98271.00;5293556;33;34899;-79
2023/01/17 13:27:41;;;;;;;2.30;1.73;;;;;;;8.07;83.86;98276.81;5307851;33;34463;-79
2023/01/17 13:30:54;;;;;;;3.40;2.03;;;;;;;7.87;85.29;98273.38;5307630;33;33763;-80
2023/01/17 13:34:05;;;;;;;4.15;2.28;;;;;;;7.73;85.75;98291.34;5307256;33;33778;-80
2023/01/17 13:37:46;;;;;;;3.05;1.95;;;;;;;7.64;87.51;98295.28;5308299;33;34857;-80
2023/01/17 13:40:53;;;;;;;4.57;2.00;;;;;;;7.69;87.59;98290.09;5302042;33;34010;-80
2023/01/17 13:47:21;;;;;;;2.80;2.58;;;;;;;7.46;87.37;98278.03;5307177;33;34099;-80
2023/01/17 13:50:37;;;;;;;3.03;2.30;;;;;;;7.37;89.57;98259.69;5320305;33;34917;-80
2023/01/17 13:53:40;;;;;;;3.10;2.53;;;;;;;7.19;91.81;98255.00;5323670;33;33959;-80
2023/01/17 13:56:43;;;;;;;3.42;2.50;;;;;;;7.20;95.05;98259.34;5305338;33;32163;-80
2023/01/17 13:59:46;;;;;;;2.92;2.60;;;;;;;7.24;96.15;98260.56;5312130;33;32310;-80
2023/01/17 14:02:52;;;;;;;4.03;2.60;;;;;;;7.14;96.67;98255.66;5316457;33;34638;-80
2023/01/17 14:05:57;;;;;;;2.25;2.15;;;;;;;7.06;97.91;98237.12;5294599;33;32452;-80
2023/01/17 14:09:36;;;;;;;2.50;2.30;;;;;;;6.97;97.50;98238.38;5319950;33;35275;-83
2023/01/17 14:12:39;;;;;;;2.90;2.50;;;;;;;6.80;98.54;98222.75;5318355;33;33731;-80
2023/01/17 14:15:49;;;;;;;3.47;2.42;;;;;;;6.69;99.47;98215.34;5314641;33;34086;-80
2023/01/17 14:18:53;;;;;;;3.58;2.80;;;;;;;6.72;99.73;98206.09;5306611;33;33896;-80
2023/01/17 14:22:21;;;;;;;3.53;2.60;;;;;;;6.66;100.00;98189.00;5306434;33;34616;-80
2023/01/17 14:25:28;;;;;;;4.40;2.50;;;;;;;6.64;100.00;98183.06;5313011;33;33611;-80
2023/01/17 14:28:31;;;;;;;3.00;2.50;;;;;;;6.61;100.00;98177.28;5317162;33;34408;-80
2023/01/17 14:31:34;;;;;;;5.32;2.97;;;;;;;6.57;100.00;98182.22;5327128;33;34684;-80
2023/01/17 14:34:37;;;;;;;6.75;2.95;;;;;;;6.56;100.00;98178.75;5323965;33;34301;-81
2023/01/17 14:37:50;;;;;;;5.85;2.75;;;;;;;6.48;100.00;98172.78;5317627;33;33980;-82
2023/01/17 14:41:25;;;;;;;14.30;3.83;;;;;;;6.45;100.00;98157.16;5310723;33;32372;-83
2023/01/17 14:44:28;;;;;;;9.35;3.92;;;;;;;6.30;100.00;98149.34;5315192;33;33991;-82
2023/01/17 14:47:36;;;;;;;9.52;4.60;;;;;;;6.42;100.00;98142.34;5299796;33;33343;-82
2023/01/17 14:50:42;;;;;;;5.40;3.22;;;;;;;6.33;100.00;98148.94;5320719;33;35012;-82
2023/01/17 14:53:54;;;;;;;5.97;3.83;;;;;;;6.33;100.00;98152.41;5323743;33;34191;-81
2023/01/17 14:57:27;;;;;;;11.48;3.72;;;;;;;6.28;100.00;98151.38;5313807;33;33592;-85
2023/01/17 15:00:33;;;;;;;12.77;3.92;;;;;;;6.11;100.00;98132.25;5316930;33;33236;-81
2023/01/17 15:03:48;;;;;;;8.88;4.15;;;;;;;6.10;100.00;98142.13;5324128;33;32543;-81
2023/01/17 15:06:51;;;;;;;4.32;3.28;;;;;;;6.13;100.00;98133.69;5324260;33;35093;-81
2023/01/17 15:09:54;;;;;;;6.93;3.65;;;;;;;6.15;100.00;98130.84;5324048;33;34082;-81
2023/01/17 15:13:04;;;;;;;6.07;3.45;;;;;;;6.18;100.00;98126.94;5312621;33;33551;-81
2023/01/17 15:16:22;;;;;;;4.60;3.33;;;;;;;6.06;100.00;98132.06;5316727;33;33846;-81
2023/01/17 15:19:25;;;;;;;6.07;3.85;;;;;;;6.07;100.00;98142.53;5310067;33;32640;-81
2023/01/17 15:22:29;;;;;;;7.32;3.60;;;;;;;6.02;100.00;98141.50;5317887;33;34440;-81
2023/01/17 15:25:32;;;;;;;3.47;3.10;;;;;;;6.01;100.00;98140.69;5323927;33;34593;-81
2023/01/17 15:28:35;;;;;;;6.07;4.32;;;;;;;5.97;100.00;98136.78;5310370;33;33727;-82
2023/01/17 15:31:47;;;;;;;7.03;3.90;;;;;;;6.02;100.00;98131.63;5304782;33;33585;-81
2023/01/17 15:34:51;;;;;;;5.93;3.87;;;;;;;5.98;100.00;98135.75;5317859;33;33962;-80
2023/01/17 15:37:57;;;;;;;4.62;3.58;;;;;;;6.06;100.00;98132.06;5302742;33;33498;-81
2023/01/17 15:41:14;;;;;;;5.57;3.67;;;;;;;5.95;100.00;98125.47;5298427;33;33324;-80
2023/01/17 15:44:30;;;;;;;6.93;3.78;;;;;;;6.06;100.00;98111.53;5306001;33;33738;-80
2023/01/17 15:47:50;;;;;;;5.78;3.40;;;;;;;5.96;100.00;98104.94;5319177;33;34405;-81
2023/01/17 15:50:58;;;;;;;7.28;4.30;;;;;;;5.96;100.00;98104.94;5295190;33;32336;-81
2023/01/17 15:54:32;;;;;;;5.57;3.57;;;;;;;6.06;100.00;98103.50;5306750;33;33167;-81
2023/01/17 15:57:35;;;;;;;5.70;3.50;;;;;;;5.97;100.00;98096.72;5313887;33;33921;-80
2023/01/17 16:00:40;;;;;;;5.85;3.42;;;;;;;5.91;100.00;98087.66;5320353;33;35319;-81
2023/01/17 16:03:53;;;;;;;4.75;3.33;;;;;;;6.00;100.00;98088.31;5321687;33;33998;-80
2023/01/17 16:07:19;;;;;;;4.50;3.42;;;;;;;5.89;100.00;98083.53;5293993;33;32319;-81
2023/01/17 16:10:26;;;;;;;3.65;3.00;;;;;;;5.87;100.00;98074.91;5292179;33;34028;-81
2023/01/17 16:13:31;;;;;;;8.60;3.30;;;;;;;5.94;100.00;98081.09;5292151;33;32919;-81
2023/01/17 16:16:34;;;;;;;6.07;3.40;;;;;;;5.90;100.00;98075.31;5306665;33;34011;-81
2023/01/17 16:19:37;;;;;;;5.50;3.42;;;;;;;5.88;100.00;98076.56;5305677;33;33679;-80
2023/01/17 16:22:43;;;;;;;5.50;3.30;;;;;;;5.84;100.00;98072.63;5307319;33;33854;-80
2023/01/17 16:25:46;;;;;;;8.82;3.55;;;;;;;5.85;100.00;98080.47;5307930;33;34035;-80
2023/01/17 16:28:50;;;;;;;5.87;3.28;;;;;;;5.82;100.00;98069.34;5309887;33;33569;-81
2023/01/17 16:31:53;;;;;;;6.60;3.30;;;;;;;5.83;100.00;98074.50;5319994;33;34160;-81
2023/01/17 16:34:56;;;;;;;5.22;3.47;;;;;;;5.78;100.00;98070.78;5297565;33;32179;-81
2023/01/17 16:38:02;;;;;;;6.30;3.20;;;;;;;5.80;100.00;98061.56;5301037;33;33207;-81
2023/01/17 16:41:05;;;;;;;3.97;3.05;;;;;;;5.75;100.00;98057.84;5313612;33;34230;-81
2023/01/17 16:44:08;;;;;;;4.37;3.30;;;;;;;5.80;100.00;98048.19;5315511;33;34112;-81
